Terminal Aerodrome Forecast
Issued by NWS

Home | Current Version | Previous Version | Text Only | Print | Product List | Glossary On
Versions: 1 2 3 4 5 6 7 8 9 10 11 12 13 14 15 16 17 18 19 20
000
FTUS43 KMKX 240520
TAFENW
TAF
KENW 240520Z 2406/2506 VRB04KT P6SM BKN100
     FM241200 04005KT P6SM BKN035
      TEMPO 2412/2416 BKN030
     FM241600 04005KT P6SM BKN035
     FM242300 04007KT P6SM BKN110
     FM250200 02011G20KT P6SM BKN080=

USA.gov is the U.S. government's official web portal to all federal, state and local government web resources and services.